CHH7086 ZUUU-ZJHK
Flight info
| Callsign | CHH7086 |
|---|---|
| Flight time | 1h 51m |
| Altitude | 38100 |
| Route | IGNAK |
| Aircraft | A359/H-SDE2E3FGILRWXY/LB2 |
Departure
| Time | 2026-05-07 13:31 |
|---|---|
| Airport | Chengdu Shuangliu International Airport (ZUUU) |
Arrival
| Time | 2026-05-07 15:22 |
|---|---|
| Airport | Haikou Meilan International Airport (ZJHK) |
| Time | Latitude | Longitude | Altitude | Speed | Heading |
|---|---|---|---|---|---|
| 2026-05-07 13:00 | 30.56967 | 103.94872 | 1694 ft | 0 kts | 77° |
| 2026-05-07 13:18 | 30.56966 | 103.94868 | 1694 ft | 2 kts | 76° |
| 2026-05-07 13:18 | 30.56962 | 103.94851 | 1694 ft | 2 kts | 75° |
| 2026-05-07 13:19 | 30.56959 | 103.94834 | 1694 ft | 2 kts | 77° |
| 2026-05-07 13:19 | 30.56955 | 103.94817 | 1694 ft | 2 kts | 60° |
| 2026-05-07 13:19 | 30.56946 | 103.94804 | 1694 ft | 2 kts | 40° |
| 2026-05-07 13:19 | 30.56933 | 103.94795 | 1694 ft | 2 kts | 24° |
| 2026-05-07 13:20 | 30.56920 | 103.94788 | 1694 ft | 2 kts | 23° |
| 2026-05-07 13:20 | 30.56906 | 103.94781 | 1694 ft | 2 kts | 25° |
| 2026-05-07 13:20 | 30.56892 | 103.94773 | 1694 ft | 2 kts | 25° |
| 2026-05-07 13:20 | 30.56879 | 103.94766 | 1694 ft | 2 kts | 14° |
| 2026-05-07 13:21 | 30.56864 | 103.94765 | 1694 ft | 2 kts | 343° |
| 2026-05-07 13:21 | 30.56851 | 103.94773 | 1694 ft | 2 kts | 317° |
| 2026-05-07 13:21 | 30.56842 | 103.94786 | 1694 ft | 2 kts | 292° |
| 2026-05-07 13:21 | 30.56837 | 103.94803 | 1694 ft | 2 kts | 289° |
| 2026-05-07 13:22 | 30.56834 | 103.94813 | 1694 ft | 0 kts | 291° |
| 2026-05-07 13:22 | 30.56834 | 103.94815 | 1694 ft | 0 kts | 292° |
| 2026-05-07 13:23 | 30.56834 | 103.94812 | 1694 ft | 0 kts | 292° |
| 2026-05-07 13:24 | 30.56838 | 103.94803 | 1694 ft | 1 kts | 292° |
| 2026-05-07 13:24 | 30.56843 | 103.94787 | 1694 ft | 2 kts | 292° |
| 2026-05-07 13:24 | 30.56851 | 103.94764 | 1694 ft | 3 kts | 292° |
| 2026-05-07 13:24 | 30.56861 | 103.94734 | 1694 ft | 4 kts | 292° |
| 2026-05-07 13:25 | 30.56874 | 103.94698 | 1694 ft | 5 kts | 292° |
| 2026-05-07 13:25 | 30.56889 | 103.94656 | 1694 ft | 6 kts | 292° |
| 2026-05-07 13:25 | 30.56901 | 103.94607 | 1694 ft | 6 kts | 270° |
| 2026-05-07 13:25 | 30.56876 | 103.94566 | 1694 ft | 7 kts | 205° |
| 2026-05-07 13:26 | 30.56825 | 103.94545 | 1694 ft | 8 kts | 201° |
| 2026-05-07 13:26 | 30.56769 | 103.94519 | 1694 ft | 9 kts | 201° |
| 2026-05-07 13:26 | 30.56706 | 103.94490 | 1694 ft | 10 kts | 201° |
| 2026-05-07 13:26 | 30.56638 | 103.94460 | 1694 ft | 10 kts | 201° |
| 2026-05-07 13:27 | 30.56565 | 103.94425 | 1694 ft | 11 kts | 202° |
| 2026-05-07 13:27 | 30.56486 | 103.94389 | 1694 ft | 12 kts | 202° |
| 2026-05-07 13:27 | 30.56401 | 103.94349 | 1694 ft | 13 kts | 201° |
| 2026-05-07 13:27 | 30.56314 | 103.94308 | 1694 ft | 10 kts | 202° |
| 2026-05-07 13:28 | 30.56279 | 103.94287 | 1694 ft | 5 kts | 220° |
| 2026-05-07 13:28 | 30.56272 | 103.94250 | 1694 ft | 5 kts | 289° |
| 2026-05-07 13:28 | 30.56285 | 103.94210 | 1694 ft | 5 kts | 291° |
| 2026-05-07 13:28 | 30.56301 | 103.94164 | 1694 ft | 6 kts | 292° |
| 2026-05-07 13:29 | 30.56319 | 103.94113 | 1694 ft | 7 kts | 292° |
| 2026-05-07 13:29 | 30.56339 | 103.94055 | 1694 ft | 7 kts | 293° |
| 2026-05-07 13:29 | 30.56380 | 103.94021 | 1694 ft | 7 kts | 359° |
| 2026-05-07 13:29 | 30.56430 | 103.94040 | 1694 ft | 8 kts | 21° |
| 2026-05-07 13:30 | 30.56622 | 103.94128 | 1694 ft | 64 kts | 21° |
| 2026-05-07 13:30 | 30.57246 | 103.94416 | 1694 ft | 129 kts | 22° |
| 2026-05-07 13:30 | 30.58272 | 103.94892 | 1699 ft | 182 kts | 21° |
| 2026-05-07 13:30 | 30.59490 | 103.95480 | 2215 ft | 196 kts | 22° |
| 2026-05-07 13:31 | 30.60748 | 103.96045 | 3092 ft | 192 kts | 23° |
| 2026-05-07 13:31 | 30.61928 | 103.96589 | 4052 ft | 182 kts | 24° |
| 2026-05-07 13:31 | 30.63051 | 103.97098 | 4891 ft | 174 kts | 23° |
| 2026-05-07 13:31 | 30.64153 | 103.97614 | 5642 ft | 170 kts | 24° |
| 2026-05-07 13:32 | 30.65239 | 103.98128 | 6287 ft | 170 kts | 24° |
| 2026-05-07 13:32 | 30.66359 | 103.98646 | 6708 ft | 184 kts | 23° |
| 2026-05-07 13:32 | 30.67630 | 103.99231 | 7062 ft | 205 kts | 23° |
| 2026-05-07 13:32 | 30.68963 | 103.99939 | 7515 ft | 220 kts | 39° |
| 2026-05-07 13:33 | 30.69851 | 104.01429 | 7946 ft | 238 kts | 74° |
| 2026-05-07 13:33 | 30.70153 | 104.03362 | 8661 ft | 245 kts | 80° |
| 2026-05-07 13:33 | 30.70427 | 104.05285 | 9540 ft | 239 kts | 63° |
| 2026-05-07 13:33 | 30.71169 | 104.07032 | 9943 ft | 260 kts | 62° |
| 2026-05-07 13:34 | 30.72093 | 104.08828 | 10751 ft | 266 kts | 54° |
| 2026-05-07 13:34 | 30.74344 | 104.12543 | 11880 ft | 297 kts | 57° |
| 2026-05-07 13:34 | 30.75440 | 104.14656 | 12345 ft | 314 kts | 67° |
| 2026-05-07 13:35 | 30.75831 | 104.17198 | 12756 ft | 332 kts | 93° |
| 2026-05-07 13:35 | 30.75261 | 104.19831 | 13195 ft | 348 kts | 116° |
| 2026-05-07 13:35 | 30.73752 | 104.22114 | 13588 ft | 365 kts | 140° |
| 2026-05-07 13:35 | 30.71497 | 104.23509 | 14095 ft | 375 kts | 165° |
| 2026-05-07 13:36 | 30.68904 | 104.23676 | 14763 ft | 378 kts | 188° |
| 2026-05-07 13:36 | 30.66326 | 104.23115 | 15484 ft | 379 kts | 191° |
| 2026-05-07 13:36 | 30.63723 | 104.22561 | 16130 ft | 381 kts | 191° |
| 2026-05-07 13:36 | 30.61133 | 104.22031 | 16779 ft | 383 kts | 191° |
| 2026-05-07 13:37 | 30.58486 | 104.21500 | 17438 ft | 384 kts | 192° |
| 2026-05-07 13:37 | 30.55855 | 104.20976 | 18068 ft | 386 kts | 192° |
| 2026-05-07 13:37 | 30.53199 | 104.20576 | 18641 ft | 392 kts | 184° |
| 2026-05-07 13:37 | 30.50436 | 104.20869 | 19206 ft | 401 kts | 171° |
| 2026-05-07 13:38 | 30.47769 | 104.21903 | 19709 ft | 411 kts | 160° |
| 2026-05-07 13:38 | 30.45181 | 104.23331 | 20191 ft | 417 kts | 158° |
| 2026-05-07 13:38 | 30.42549 | 104.24835 | 20633 ft | 423 kts | 158° |
| 2026-05-07 13:38 | 30.39923 | 104.26341 | 21083 ft | 428 kts | 158° |
| 2026-05-07 13:39 | 30.37246 | 104.27868 | 21516 ft | 433 kts | 159° |
| 2026-05-07 13:39 | 30.34534 | 104.29408 | 21941 ft | 437 kts | 159° |
| 2026-05-07 13:39 | 30.31756 | 104.30980 | 22350 ft | 443 kts | 159° |
| 2026-05-07 13:39 | 30.28990 | 104.32539 | 22783 ft | 447 kts | 159° |
| 2026-05-07 13:40 | 30.26168 | 104.34129 | 23285 ft | 450 kts | 159° |
| 2026-05-07 13:40 | 30.23350 | 104.35717 | 23775 ft | 450 kts | 160° |
| 2026-05-07 13:40 | 30.20543 | 104.37296 | 24134 ft | 454 kts | 160° |
| 2026-05-07 13:40 | 30.17675 | 104.38906 | 24480 ft | 458 kts | 160° |
| 2026-05-07 13:41 | 30.14795 | 104.40521 | 24876 ft | 460 kts | 160° |
| 2026-05-07 13:41 | 30.11896 | 104.42148 | 25302 ft | 462 kts | 160° |
| 2026-05-07 13:41 | 30.08911 | 104.43821 | 25675 ft | 464 kts | 160° |
| 2026-05-07 13:41 | 30.06003 | 104.45450 | 26027 ft | 467 kts | 160° |
| 2026-05-07 13:42 | 30.03070 | 104.47093 | 26385 ft | 469 kts | 161° |
| 2026-05-07 13:42 | 30.00119 | 104.48743 | 26745 ft | 471 kts | 161° |
| 2026-05-07 13:42 | 29.97147 | 104.50406 | 27117 ft | 472 kts | 161° |
| 2026-05-07 13:42 | 29.94219 | 104.52041 | 27481 ft | 473 kts | 161° |
| 2026-05-07 13:43 | 29.91238 | 104.53703 | 27815 ft | 475 kts | 161° |
| 2026-05-07 13:43 | 29.88201 | 104.55396 | 28155 ft | 477 kts | 161° |
| 2026-05-07 13:43 | 29.85139 | 104.57097 | 28521 ft | 478 kts | 161° |
| 2026-05-07 13:43 | 29.82137 | 104.58762 | 28835 ft | 480 kts | 161° |
| 2026-05-07 13:44 | 29.79156 | 104.60418 | 29149 ft | 481 kts | 161° |
| 2026-05-07 13:44 | 29.76107 | 104.62112 | 29450 ft | 483 kts | 161° |
| 2026-05-07 13:44 | 29.73087 | 104.63789 | 29700 ft | 486 kts | 161° |
| 2026-05-07 13:44 | 29.70040 | 104.65481 | 29935 ft | 489 kts | 161° |
| 2026-05-07 13:45 | 29.66966 | 104.67200 | 30181 ft | 491 kts | 161° |
| 2026-05-07 13:45 | 29.63916 | 104.68911 | 30393 ft | 493 kts | 161° |
| 2026-05-07 13:45 | 29.60786 | 104.70660 | 30615 ft | 496 kts | 161° |
| 2026-05-07 13:45 | 29.57711 | 104.72371 | 30824 ft | 498 kts | 161° |
| 2026-05-07 13:46 | 29.54561 | 104.74116 | 31060 ft | 499 kts | 161° |
| 2026-05-07 13:46 | 29.51422 | 104.75854 | 31217 ft | 502 kts | 162° |
| 2026-05-07 13:46 | 29.48288 | 104.77588 | 31413 ft | 505 kts | 162° |
| 2026-05-07 13:46 | 29.45122 | 104.79335 | 31599 ft | 507 kts | 161° |
| 2026-05-07 13:47 | 29.41906 | 104.81109 | 31818 ft | 508 kts | 162° |
| 2026-05-07 13:47 | 29.38757 | 104.82846 | 32113 ft | 508 kts | 161° |
| 2026-05-07 13:47 | 29.35556 | 104.84611 | 32380 ft | 508 kts | 162° |
| 2026-05-07 13:47 | 29.32361 | 104.86360 | 32619 ft | 508 kts | 163° |
| 2026-05-07 13:48 | 29.29172 | 104.88004 | 32873 ft | 507 kts | 164° |
| 2026-05-07 13:48 | 29.25916 | 104.89629 | 33090 ft | 508 kts | 164° |
| 2026-05-07 13:48 | 29.22662 | 104.91245 | 33354 ft | 508 kts | 164° |
| 2026-05-07 13:48 | 29.19450 | 104.92849 | 33638 ft | 507 kts | 164° |
| 2026-05-07 13:49 | 29.16204 | 104.94477 | 33904 ft | 507 kts | 164° |
| 2026-05-07 13:49 | 29.12980 | 104.96099 | 34182 ft | 507 kts | 164° |
| 2026-05-07 13:49 | 29.09765 | 104.97722 | 34465 ft | 506 kts | 164° |
| 2026-05-07 13:49 | 29.06547 | 104.99350 | 34711 ft | 506 kts | 164° |
| 2026-05-07 13:50 | 29.03317 | 105.00983 | 34964 ft | 506 kts | 164° |
| 2026-05-07 13:50 | 29.00079 | 105.02615 | 35195 ft | 505 kts | 164° |
| 2026-05-07 13:50 | 28.96898 | 105.04218 | 35411 ft | 506 kts | 164° |
| 2026-05-07 13:50 | 28.93670 | 105.05841 | 35631 ft | 505 kts | 164° |
| 2026-05-07 13:51 | 28.90425 | 105.07467 | 35841 ft | 505 kts | 164° |
| 2026-05-07 13:51 | 28.87226 | 105.09062 | 36037 ft | 505 kts | 164° |
| 2026-05-07 13:51 | 28.84007 | 105.10663 | 36244 ft | 505 kts | 164° |
| 2026-05-07 13:51 | 28.80757 | 105.12282 | 36434 ft | 505 kts | 164° |
| 2026-05-07 13:52 | 28.77551 | 105.13947 | 36608 ft | 508 kts | 161° |
| 2026-05-07 13:52 | 28.74439 | 105.15775 | 36797 ft | 510 kts | 159° |
| 2026-05-07 13:52 | 28.71302 | 105.17673 | 36995 ft | 510 kts | 159° |
| 2026-05-07 13:52 | 28.68176 | 105.19574 | 37158 ft | 510 kts | 159° |
| 2026-05-07 13:53 | 28.65060 | 105.21465 | 37338 ft | 510 kts | 159° |
| 2026-05-07 13:53 | 28.61890 | 105.23386 | 37467 ft | 510 kts | 159° |
| 2026-05-07 13:53 | 28.58780 | 105.25266 | 37571 ft | 511 kts | 159° |
| 2026-05-07 13:53 | 28.55641 | 105.27164 | 37693 ft | 512 kts | 159° |
| 2026-05-07 13:54 | 28.52491 | 105.29065 | 37813 ft | 512 kts | 159° |
| 2026-05-07 13:54 | 28.49345 | 105.30963 | 37932 ft | 513 kts | 159° |
| 2026-05-07 13:54 | 28.46181 | 105.32871 | 38057 ft | 513 kts | 159° |
| 2026-05-07 13:54 | 28.43010 | 105.34780 | 38170 ft | 514 kts | 159° |
| 2026-05-07 13:55 | 28.39876 | 105.36667 | 38243 ft | 515 kts | 159° |
| 2026-05-07 13:55 | 28.36704 | 105.38574 | 38352 ft | 515 kts | 159° |
| 2026-05-07 13:55 | 28.33517 | 105.40491 | 38446 ft | 516 kts | 159° |
| 2026-05-07 13:56 | 28.27196 | 105.44285 | 38633 ft | 517 kts | 159° |
| 2026-05-07 13:56 | 28.23989 | 105.46210 | 38763 ft | 517 kts | 159° |
| 2026-05-07 13:56 | 28.20833 | 105.48103 | 38874 ft | 517 kts | 159° |
| 2026-05-07 13:57 | 28.14437 | 105.51926 | 39036 ft | 518 kts | 159° |
| 2026-05-07 13:57 | 28.07948 | 105.55210 | 39192 ft | 511 kts | 166° |
| 2026-05-07 13:57 | 28.04588 | 105.56538 | 39296 ft | 507 kts | 169° |
| 2026-05-07 13:58 | 28.01196 | 105.57639 | 39291 ft | 504 kts | 173° |
| 2026-05-07 13:58 | 27.94376 | 105.59181 | 39311 ft | 497 kts | 179° |
| 2026-05-07 13:59 | 27.87505 | 105.60370 | 39304 ft | 501 kts | 176° |
| 2026-05-07 13:59 | 27.80729 | 105.62289 | 39304 ft | 508 kts | 169° |
| 2026-05-07 14:00 | 27.74050 | 105.65128 | 39305 ft | 515 kts | 162° |
| 2026-05-07 14:00 | 27.67641 | 105.68792 | 39308 ft | 517 kts | 160° |
| 2026-05-07 14:01 | 27.61179 | 105.72366 | 39322 ft | 516 kts | 161° |
| 2026-05-07 14:01 | 27.54717 | 105.75874 | 39335 ft | 516 kts | 161° |
| 2026-05-07 14:02 | 27.48235 | 105.79373 | 39345 ft | 516 kts | 161° |
| 2026-05-07 14:02 | 27.41788 | 105.82848 | 39351 ft | 515 kts | 161° |
| 2026-05-07 14:03 | 27.35300 | 105.86340 | 39343 ft | 515 kts | 161° |
| 2026-05-07 14:03 | 27.28834 | 105.89814 | 39338 ft | 514 kts | 160° |
| 2026-05-07 14:04 | 27.22408 | 105.93263 | 39350 ft | 514 kts | 160° |
| 2026-05-07 14:04 | 27.15937 | 105.96729 | 39346 ft | 515 kts | 160° |
| 2026-05-07 14:05 | 27.09577 | 106.00523 | 39341 ft | 521 kts | 153° |
| 2026-05-07 14:05 | 27.03759 | 106.05363 | 39334 ft | 528 kts | 143° |
| 2026-05-07 14:06 | 26.98603 | 106.11276 | 39306 ft | 534 kts | 133° |
| 2026-05-07 14:06 | 26.94084 | 106.17904 | 39314 ft | 536 kts | 130° |
| 2026-05-07 14:07 | 26.89624 | 106.24614 | 39322 ft | 535 kts | 130° |
| 2026-05-07 14:07 | 26.85124 | 106.31271 | 39329 ft | 535 kts | 130° |
| 2026-05-07 14:08 | 26.80646 | 106.37870 | 39328 ft | 535 kts | 130° |
| 2026-05-07 14:08 | 26.76128 | 106.44531 | 39325 ft | 535 kts | 130° |
| 2026-05-07 14:09 | 26.71667 | 106.51106 | 39333 ft | 534 kts | 130° |
| 2026-05-07 14:09 | 26.67171 | 106.57725 | 39317 ft | 534 kts | 130° |
| 2026-05-07 14:10 | 26.62691 | 106.64314 | 39319 ft | 535 kts | 130° |
| 2026-05-07 14:10 | 26.58215 | 106.70908 | 39317 ft | 534 kts | 130° |
| 2026-05-07 14:11 | 26.53676 | 106.77508 | 39311 ft | 532 kts | 133° |
| 2026-05-07 14:11 | 26.48731 | 106.83566 | 39316 ft | 528 kts | 139° |
| 2026-05-07 14:12 | 26.43491 | 106.89301 | 39317 ft | 527 kts | 139° |
| 2026-05-07 14:12 | 26.38258 | 106.95015 | 39312 ft | 527 kts | 139° |
| 2026-05-07 14:13 | 26.33031 | 107.00736 | 39319 ft | 528 kts | 139° |
| 2026-05-07 14:13 | 26.27782 | 107.06488 | 39318 ft | 528 kts | 139° |
| 2026-05-07 14:14 | 26.22566 | 107.12231 | 39312 ft | 528 kts | 139° |
| 2026-05-07 14:14 | 26.17371 | 107.17938 | 39304 ft | 527 kts | 139° |
| 2026-05-07 14:15 | 26.12141 | 107.23672 | 39296 ft | 526 kts | 139° |
| 2026-05-07 14:15 | 26.06964 | 107.29338 | 39285 ft | 526 kts | 139° |
| 2026-05-07 14:16 | 26.01760 | 107.35027 | 39278 ft | 525 kts | 139° |
| 2026-05-07 14:16 | 25.96542 | 107.40720 | 39264 ft | 525 kts | 139° |
| 2026-05-07 14:17 | 25.91345 | 107.46386 | 39264 ft | 525 kts | 139° |
| 2026-05-07 14:17 | 25.86105 | 107.52072 | 39252 ft | 524 kts | 139° |
| 2026-05-07 14:18 | 25.80917 | 107.57691 | 39259 ft | 524 kts | 139° |
| 2026-05-07 14:18 | 25.75722 | 107.63331 | 39253 ft | 523 kts | 139° |
| 2026-05-07 14:19 | 25.70529 | 107.68986 | 39246 ft | 524 kts | 138° |
| 2026-05-07 14:19 | 25.65355 | 107.74674 | 39231 ft | 523 kts | 138° |
| 2026-05-07 14:20 | 25.60178 | 107.80348 | 39226 ft | 523 kts | 138° |
| 2026-05-07 14:20 | 25.55022 | 107.85980 | 39221 ft | 523 kts | 139° |
| 2026-05-07 14:21 | 25.49603 | 107.91260 | 39211 ft | 517 kts | 148° |
| 2026-05-07 14:21 | 25.43399 | 107.95128 | 39194 ft | 509 kts | 162° |
| 2026-05-07 14:22 | 25.36678 | 107.97397 | 39192 ft | 500 kts | 174° |
| 2026-05-07 14:22 | 25.29846 | 107.98355 | 39195 ft | 496 kts | 179° |
| 2026-05-07 14:23 | 25.22951 | 107.99150 | 39193 ft | 496 kts | 179° |
| 2026-05-07 14:23 | 25.16052 | 107.99966 | 39182 ft | 498 kts | 178° |
| 2026-05-07 14:24 | 25.09182 | 108.00796 | 39164 ft | 499 kts | 178° |
| 2026-05-07 14:24 | 25.02284 | 108.01635 | 39149 ft | 499 kts | 178° |
| 2026-05-07 14:25 | 24.95376 | 108.02475 | 39137 ft | 499 kts | 178° |
| 2026-05-07 14:25 | 24.88448 | 108.03316 | 39134 ft | 498 kts | 178° |
| 2026-05-07 14:26 | 24.81575 | 108.04149 | 39134 ft | 499 kts | 178° |
| 2026-05-07 14:26 | 24.74674 | 108.04982 | 39130 ft | 498 kts | 178° |
| 2026-05-07 14:27 | 24.67807 | 108.05811 | 39133 ft | 498 kts | 178° |
| 2026-05-07 14:27 | 24.60881 | 108.06481 | 39131 ft | 494 kts | 183° |
| 2026-05-07 14:28 | 24.54064 | 108.06311 | 39137 ft | 489 kts | 190° |
| 2026-05-07 14:28 | 24.47368 | 108.05244 | 39132 ft | 484 kts | 197° |
| 2026-05-07 14:29 | 24.40850 | 108.03361 | 39131 ft | 481 kts | 201° |
| 2026-05-07 14:29 | 24.34456 | 108.01294 | 39131 ft | 480 kts | 201° |
| 2026-05-07 14:30 | 24.28064 | 107.99235 | 39125 ft | 480 kts | 201° |
| 2026-05-07 14:30 | 24.21636 | 107.97169 | 39128 ft | 481 kts | 201° |
| 2026-05-07 14:31 | 24.15203 | 107.95108 | 39127 ft | 481 kts | 201° |
| 2026-05-07 14:31 | 24.08744 | 107.93040 | 39129 ft | 481 kts | 201° |
| 2026-05-07 14:32 | 24.02327 | 107.90987 | 39121 ft | 480 kts | 200° |
| 2026-05-07 14:32 | 23.95948 | 107.88948 | 39124 ft | 480 kts | 201° |
| 2026-05-07 14:33 | 23.89523 | 107.86894 | 39119 ft | 480 kts | 200° |
| 2026-05-07 14:33 | 23.83116 | 107.84908 | 39107 ft | 482 kts | 198° |
| 2026-05-07 14:34 | 23.76539 | 107.83207 | 39100 ft | 482 kts | 197° |
| 2026-05-07 14:34 | 23.70038 | 107.81532 | 39098 ft | 483 kts | 197° |
| 2026-05-07 14:35 | 23.63476 | 107.79836 | 39100 ft | 484 kts | 197° |
| 2026-05-07 14:35 | 23.56927 | 107.78142 | 39096 ft | 483 kts | 197° |
| 2026-05-07 14:36 | 23.50379 | 107.76452 | 39093 ft | 484 kts | 197° |
| 2026-05-07 14:36 | 23.43801 | 107.74753 | 39087 ft | 484 kts | 197° |
| 2026-05-07 14:37 | 23.37278 | 107.73071 | 39087 ft | 484 kts | 197° |
| 2026-05-07 14:37 | 23.27407 | 107.70524 | 39078 ft | 485 kts | 197° |
| 2026-05-07 14:38 | 23.20837 | 107.68830 | 39069 ft | 485 kts | 197° |
| 2026-05-07 14:38 | 23.14273 | 107.67149 | 39074 ft | 485 kts | 194° |
| 2026-05-07 14:39 | 23.07459 | 107.66814 | 39059 ft | 494 kts | 175° |
| 2026-05-07 14:39 | 23.00827 | 107.68880 | 39070 ft | 502 kts | 156° |
| 2026-05-07 14:40 | 22.95085 | 107.73186 | 39051 ft | 508 kts | 137° |
| 2026-05-07 14:40 | 22.90229 | 107.78740 | 39043 ft | 509 kts | 134° |
| 2026-05-07 14:41 | 22.85393 | 107.84360 | 39048 ft | 509 kts | 135° |
| 2026-05-07 14:41 | 22.80535 | 107.89941 | 39049 ft | 509 kts | 135° |
| 2026-05-07 14:42 | 22.75703 | 107.95476 | 39056 ft | 508 kts | 135° |
| 2026-05-07 14:42 | 22.70850 | 108.01029 | 39045 ft | 509 kts | 135° |
| 2026-05-07 14:43 | 22.65973 | 108.06604 | 39045 ft | 509 kts | 135° |
| 2026-05-07 14:43 | 22.61119 | 108.12144 | 39045 ft | 509 kts | 135° |
| 2026-05-07 14:44 | 22.56408 | 108.17831 | 39050 ft | 509 kts | 131° |
| 2026-05-07 14:44 | 22.51864 | 108.23698 | 39044 ft | 509 kts | 131° |
| 2026-05-07 14:45 | 22.47331 | 108.29552 | 39048 ft | 508 kts | 131° |
| 2026-05-07 14:45 | 22.42797 | 108.35396 | 39045 ft | 508 kts | 131° |
| 2026-05-07 14:46 | 22.38247 | 108.41249 | 39044 ft | 508 kts | 131° |
| 2026-05-07 14:46 | 22.33719 | 108.47066 | 39047 ft | 508 kts | 130° |
| 2026-05-07 14:47 | 22.29190 | 108.52879 | 39041 ft | 507 kts | 130° |
| 2026-05-07 14:47 | 22.24626 | 108.58730 | 39041 ft | 507 kts | 130° |
| 2026-05-07 14:48 | 22.20084 | 108.64545 | 39037 ft | 507 kts | 130° |
| 2026-05-07 14:48 | 22.15584 | 108.70325 | 39036 ft | 506 kts | 131° |
| 2026-05-07 14:49 | 22.11039 | 108.76147 | 39040 ft | 506 kts | 130° |
| 2026-05-07 14:49 | 22.06541 | 108.81929 | 39031 ft | 506 kts | 130° |
| 2026-05-07 14:50 | 22.02008 | 108.87747 | 39029 ft | 505 kts | 130° |
| 2026-05-07 14:50 | 21.97517 | 108.93497 | 39026 ft | 505 kts | 130° |
| 2026-05-07 14:51 | 21.93023 | 108.99239 | 38636 ft | 499 kts | 130° |
| 2026-05-07 14:51 | 21.90792 | 109.02087 | 38010 ft | 497 kts | 130° |
| 2026-05-07 14:51 | 21.88556 | 109.04933 | 37324 ft | 495 kts | 130° |
| 2026-05-07 14:52 | 21.86332 | 109.07750 | 36561 ft | 496 kts | 130° |
| 2026-05-07 14:52 | 21.84118 | 109.10564 | 35725 ft | 498 kts | 130° |
| 2026-05-07 14:52 | 21.81891 | 109.13413 | 34868 ft | 500 kts | 130° |
| 2026-05-07 14:52 | 21.79646 | 109.16294 | 33974 ft | 502 kts | 130° |
| 2026-05-07 14:53 | 21.77405 | 109.19173 | 33063 ft | 505 kts | 129° |
| 2026-05-07 14:53 | 21.75152 | 109.22066 | 32167 ft | 509 kts | 129° |
| 2026-05-07 14:53 | 21.72881 | 109.24981 | 31296 ft | 511 kts | 130° |
| 2026-05-07 14:53 | 21.70608 | 109.27896 | 30550 ft | 511 kts | 130° |
| 2026-05-07 14:54 | 21.68335 | 109.30808 | 30099 ft | 504 kts | 129° |
| 2026-05-07 14:54 | 21.66070 | 109.33705 | 29598 ft | 500 kts | 129° |
| 2026-05-07 14:54 | 21.63859 | 109.36534 | 29100 ft | 495 kts | 130° |
| 2026-05-07 14:54 | 21.61632 | 109.39346 | 28558 ft | 492 kts | 133° |
| 2026-05-07 14:55 | 21.59005 | 109.41650 | 27895 ft | 490 kts | 152° |
| 2026-05-07 14:55 | 21.55827 | 109.42851 | 27451 ft | 480 kts | 172° |
| 2026-05-07 14:55 | 21.52510 | 109.42952 | 27039 ft | 471 kts | 185° |
| 2026-05-07 14:55 | 21.49273 | 109.42677 | 26538 ft | 468 kts | 186° |
| 2026-05-07 14:56 | 21.46037 | 109.42394 | 25988 ft | 466 kts | 186° |
| 2026-05-07 14:56 | 21.42794 | 109.42129 | 25496 ft | 462 kts | 185° |
| 2026-05-07 14:56 | 21.39605 | 109.41885 | 25014 ft | 458 kts | 185° |
| 2026-05-07 14:56 | 21.36426 | 109.41652 | 24529 ft | 455 kts | 185° |
| 2026-05-07 14:57 | 21.33263 | 109.41427 | 24035 ft | 451 kts | 185° |
| 2026-05-07 14:57 | 21.30154 | 109.41210 | 23548 ft | 447 kts | 185° |
| 2026-05-07 14:57 | 21.27028 | 109.40995 | 23044 ft | 444 kts | 185° |
| 2026-05-07 14:57 | 21.23944 | 109.40783 | 22564 ft | 440 kts | 185° |
| 2026-05-07 14:58 | 21.20877 | 109.40572 | 22104 ft | 436 kts | 185° |
| 2026-05-07 14:58 | 21.17869 | 109.40366 | 21644 ft | 433 kts | 185° |
| 2026-05-07 14:58 | 21.14833 | 109.40157 | 21168 ft | 430 kts | 185° |
| 2026-05-07 14:58 | 21.11867 | 109.39953 | 20705 ft | 426 kts | 185° |
| 2026-05-07 14:59 | 21.08910 | 109.39750 | 20225 ft | 424 kts | 185° |
| 2026-05-07 14:59 | 21.05988 | 109.39549 | 19754 ft | 421 kts | 185° |
| 2026-05-07 14:59 | 21.03077 | 109.39348 | 19289 ft | 418 kts | 184° |
| 2026-05-07 14:59 | 21.00164 | 109.39147 | 18832 ft | 414 kts | 184° |
| 2026-05-07 15:00 | 20.97293 | 109.38950 | 18367 ft | 412 kts | 184° |
| 2026-05-07 15:00 | 20.94437 | 109.38756 | 17885 ft | 409 kts | 184° |
| 2026-05-07 15:00 | 20.91603 | 109.38570 | 17427 ft | 406 kts | 182° |
| 2026-05-07 15:00 | 20.88826 | 109.38886 | 16926 ft | 405 kts | 164° |
| 2026-05-07 15:01 | 20.86270 | 109.40099 | 16505 ft | 401 kts | 146° |
| 2026-05-07 15:01 | 20.84057 | 109.41918 | 16074 ft | 397 kts | 140° |
| 2026-05-07 15:01 | 20.81935 | 109.43798 | 15555 ft | 397 kts | 140° |
| 2026-05-07 15:01 | 20.79825 | 109.45676 | 15083 ft | 395 kts | 140° |
| 2026-05-07 15:02 | 20.77701 | 109.47554 | 14647 ft | 392 kts | 140° |
| 2026-05-07 15:02 | 20.75635 | 109.49371 | 14215 ft | 389 kts | 141° |
| 2026-05-07 15:02 | 20.73538 | 109.51206 | 13861 ft | 384 kts | 141° |
| 2026-05-07 15:02 | 20.71479 | 109.53001 | 13489 ft | 381 kts | 141° |
| 2026-05-07 15:03 | 20.69428 | 109.54788 | 13115 ft | 378 kts | 141° |
| 2026-05-07 15:03 | 20.67386 | 109.56564 | 12729 ft | 375 kts | 141° |
| 2026-05-07 15:03 | 20.65393 | 109.58295 | 12360 ft | 372 kts | 141° |
| 2026-05-07 15:03 | 20.63378 | 109.60046 | 11987 ft | 369 kts | 141° |
| 2026-05-07 15:04 | 20.61409 | 109.61756 | 11617 ft | 366 kts | 141° |
| 2026-05-07 15:04 | 20.59436 | 109.63470 | 11242 ft | 363 kts | 141° |
| 2026-05-07 15:04 | 20.57480 | 109.65169 | 10879 ft | 360 kts | 142° |
| 2026-05-07 15:04 | 20.55570 | 109.66836 | 10515 ft | 357 kts | 141° |
| 2026-05-07 15:05 | 20.53655 | 109.68509 | 10300 ft | 348 kts | 141° |
| 2026-05-07 15:05 | 20.51814 | 109.70114 | 10222 ft | 334 kts | 141° |
| 2026-05-07 15:05 | 20.50022 | 109.71671 | 10144 ft | 322 kts | 142° |
| 2026-05-07 15:05 | 20.48317 | 109.73154 | 10072 ft | 310 kts | 141° |
| 2026-05-07 15:06 | 20.46687 | 109.74573 | 10007 ft | 298 kts | 141° |
| 2026-05-07 15:06 | 20.45088 | 109.75964 | 9948 ft | 288 kts | 142° |
| 2026-05-07 15:06 | 20.43555 | 109.77296 | 9675 ft | 288 kts | 142° |
| 2026-05-07 15:06 | 20.42007 | 109.78641 | 9403 ft | 286 kts | 142° |
| 2026-05-07 15:07 | 20.40454 | 109.79988 | 9137 ft | 284 kts | 142° |
| 2026-05-07 15:07 | 20.38923 | 109.81316 | 8875 ft | 282 kts | 142° |
| 2026-05-07 15:07 | 20.37390 | 109.82646 | 8612 ft | 280 kts | 141° |
| 2026-05-07 15:07 | 20.35891 | 109.83946 | 8353 ft | 279 kts | 141° |
| 2026-05-07 15:08 | 20.34375 | 109.85259 | 8093 ft | 277 kts | 141° |
| 2026-05-07 15:08 | 20.32877 | 109.86558 | 7829 ft | 276 kts | 141° |
| 2026-05-07 15:08 | 20.31387 | 109.87849 | 7566 ft | 275 kts | 141° |
| 2026-05-07 15:08 | 20.29903 | 109.89133 | 7307 ft | 274 kts | 141° |
| 2026-05-07 15:09 | 20.28441 | 109.90401 | 7057 ft | 273 kts | 140° |
| 2026-05-07 15:09 | 20.26971 | 109.91673 | 6808 ft | 271 kts | 140° |
| 2026-05-07 15:09 | 20.25497 | 109.92948 | 6564 ft | 270 kts | 140° |
| 2026-05-07 15:09 | 20.24038 | 109.94212 | 6326 ft | 268 kts | 140° |
| 2026-05-07 15:10 | 20.22595 | 109.95462 | 6085 ft | 267 kts | 140° |
| 2026-05-07 15:10 | 20.21170 | 109.96697 | 5844 ft | 266 kts | 140° |
| 2026-05-07 15:10 | 20.19727 | 109.97946 | 5603 ft | 264 kts | 140° |
| 2026-05-07 15:10 | 20.18306 | 109.99174 | 5367 ft | 263 kts | 140° |
| 2026-05-07 15:11 | 20.16877 | 110.00410 | 5130 ft | 261 kts | 140° |
| 2026-05-07 15:11 | 20.15466 | 110.01630 | 4894 ft | 260 kts | 140° |
| 2026-05-07 15:11 | 20.14076 | 110.02831 | 4664 ft | 259 kts | 140° |
| 2026-05-07 15:11 | 20.12674 | 110.04044 | 4432 ft | 257 kts | 140° |
| 2026-05-07 15:12 | 20.11276 | 110.05250 | 4200 ft | 256 kts | 140° |
| 2026-05-07 15:12 | 20.09899 | 110.06439 | 3970 ft | 255 kts | 140° |
| 2026-05-07 15:12 | 20.08525 | 110.07624 | 3737 ft | 254 kts | 140° |
| 2026-05-07 15:12 | 20.07169 | 110.08794 | 3650 ft | 244 kts | 140° |
| 2026-05-07 15:13 | 20.05886 | 110.09901 | 3623 ft | 232 kts | 140° |
| 2026-05-07 15:13 | 20.04651 | 110.10967 | 3590 ft | 220 kts | 140° |
| 2026-05-07 15:13 | 20.03502 | 110.11958 | 3584 ft | 206 kts | 140° |
| 2026-05-07 15:13 | 20.02419 | 110.12893 | 3514 ft | 191 kts | 140° |
| 2026-05-07 15:14 | 20.01356 | 110.13645 | 3405 ft | 178 kts | 160° |
| 2026-05-07 15:14 | 20.00180 | 110.13760 | 3346 ft | 163 kts | 180° |
| 2026-05-07 15:14 | 19.99056 | 110.13757 | 3223 ft | 158 kts | 178° |
| 2026-05-07 15:14 | 19.97956 | 110.13769 | 3098 ft | 158 kts | 178° |
| 2026-05-07 15:15 | 19.96854 | 110.13786 | 2948 ft | 158 kts | 177° |
| 2026-05-07 15:15 | 19.95789 | 110.13904 | 2889 ft | 152 kts | 152° |
| 2026-05-07 15:15 | 19.95176 | 110.14716 | 2878 ft | 141 kts | 100° |
| 2026-05-07 15:15 | 19.95129 | 110.15774 | 2918 ft | 148 kts | 89° |
| 2026-05-07 15:16 | 19.95190 | 110.16891 | 2926 ft | 156 kts | 87° |
| 2026-05-07 15:16 | 19.95264 | 110.18049 | 2918 ft | 157 kts | 88° |
| 2026-05-07 15:16 | 19.95320 | 110.19218 | 2914 ft | 157 kts | 89° |
| 2026-05-07 15:16 | 19.95356 | 110.20383 | 2913 ft | 157 kts | 90° |
| 2026-05-07 15:17 | 19.95376 | 110.21520 | 2891 ft | 150 kts | 90° |
| 2026-05-07 15:17 | 19.95384 | 110.22618 | 2911 ft | 150 kts | 91° |
| 2026-05-07 15:17 | 19.95383 | 110.23766 | 2928 ft | 158 kts | 91° |
| 2026-05-07 15:17 | 19.95378 | 110.24932 | 2918 ft | 158 kts | 91° |
| 2026-05-07 15:18 | 19.95372 | 110.26091 | 2914 ft | 156 kts | 91° |
| 2026-05-07 15:18 | 19.95366 | 110.27253 | 2918 ft | 157 kts | 92° |
| 2026-05-07 15:18 | 19.95359 | 110.28432 | 2911 ft | 160 kts | 91° |
| 2026-05-07 15:18 | 19.95354 | 110.29645 | 2725 ft | 167 kts | 91° |
| 2026-05-07 15:19 | 19.95352 | 110.30840 | 2507 ft | 159 kts | 92° |
| 2026-05-07 15:19 | 19.95352 | 110.31979 | 2302 ft | 150 kts | 92° |
| 2026-05-07 15:19 | 19.95351 | 110.33097 | 2120 ft | 153 kts | 92° |
| 2026-05-07 15:19 | 19.95351 | 110.34242 | 1926 ft | 156 kts | 92° |
| 2026-05-07 15:20 | 19.95352 | 110.35397 | 1727 ft | 155 kts | 93° |
| 2026-05-07 15:20 | 19.95353 | 110.36525 | 1532 ft | 153 kts | 92° |
| 2026-05-07 15:20 | 19.95355 | 110.37661 | 1339 ft | 153 kts | 92° |
| 2026-05-07 15:20 | 19.95358 | 110.38785 | 1143 ft | 153 kts | 92° |
| 2026-05-07 15:21 | 19.95360 | 110.39914 | 947 ft | 151 kts | 91° |
| 2026-05-07 15:21 | 19.95362 | 110.41027 | 761 ft | 153 kts | 91° |
| 2026-05-07 15:21 | 19.95369 | 110.42165 | 580 ft | 154 kts | 91° |
| 2026-05-07 15:21 | 19.95370 | 110.43293 | 396 ft | 152 kts | 91° |
| 2026-05-07 15:22 | 19.95369 | 110.44420 | 181 ft | 150 kts | 90° |
| 2026-05-07 15:22 | 19.95373 | 110.45478 | 69 ft | 130 kts | 90° |
| 2026-05-07 15:22 | 19.95378 | 110.46252 | 62 ft | 77 kts | 91° |
| 2026-05-07 15:22 | 19.95378 | 110.46635 | 59 ft | 26 kts | 89° |
| 2026-05-07 15:23 | 19.95378 | 110.46810 | 60 ft | 23 kts | 91° |
| 2026-05-07 15:23 | 19.95350 | 110.46980 | 60 ft | 23 kts | 107° |
| 2026-05-07 15:23 | 19.95298 | 110.47102 | 59 ft | 15 kts | 121° |
| 2026-05-07 15:23 | 19.95240 | 110.47149 | 58 ft | 6 kts | 177° |
| 2026-05-07 15:24 | 19.95212 | 110.47118 | 57 ft | 7 kts | 259° |
| 2026-05-07 15:24 | 19.95208 | 110.47059 | 57 ft | 8 kts | 269° |
| 2026-05-07 15:24 | 19.95207 | 110.46989 | 57 ft | 10 kts | 270° |
| 2026-05-07 15:24 | 19.95207 | 110.46908 | 57 ft | 11 kts | 270° |
| 2026-05-07 15:25 | 19.95207 | 110.46816 | 57 ft | 12 kts | 269° |
| 2026-05-07 15:25 | 19.95206 | 110.46715 | 57 ft | 14 kts | 271° |
| 2026-05-07 15:25 | 19.95206 | 110.46609 | 58 ft | 14 kts | 270° |
| 2026-05-07 15:25 | 19.95206 | 110.46503 | 60 ft | 12 kts | 269° |
| 2026-05-07 15:26 | 19.95205 | 110.46406 | 61 ft | 13 kts | 269° |
| 2026-05-07 15:26 | 19.95205 | 110.46310 | 63 ft | 12 kts | 270° |
| 2026-05-07 15:26 | 19.95205 | 110.46223 | 66 ft | 10 kts | 269° |
| 2026-05-07 15:26 | 19.95204 | 110.46150 | 69 ft | 8 kts | 269° |
| 2026-05-07 15:27 | 19.95204 | 110.46088 | 71 ft | 8 kts | 269° |
| 2026-05-07 15:27 | 19.95203 | 110.46027 | 72 ft | 8 kts | 269° |
| 2026-05-07 15:27 | 19.95189 | 110.45976 | 73 ft | 7 kts | 219° |
| 2026-05-07 15:27 | 19.95138 | 110.45966 | 74 ft | 7 kts | 184° |
| 2026-05-07 15:28 | 19.95088 | 110.45965 | 75 ft | 7 kts | 180° |
| 2026-05-07 15:28 | 19.95045 | 110.45950 | 76 ft | 6 kts | 214° |
| 2026-05-07 15:28 | 19.95004 | 110.45922 | 76 ft | 7 kts | 212° |
| 2026-05-07 15:28 | 19.94966 | 110.45886 | 76 ft | 6 kts | 226° |
| 2026-05-07 15:29 | 19.94954 | 110.45863 | 76 ft | 1 kts | 253° |
| 2026-05-07 15:29 | 19.94950 | 110.45853 | 76 ft | 1 kts | 247° |
| 2026-05-07 15:29 | 19.94947 | 110.45845 | 76 ft | 0 kts | 242° |
| 2026-05-07 15:29 | 19.94946 | 110.45844 | 76 ft | 0 kts | 231° |
| 2026-05-07 15:30 | 19.94945 | 110.45844 | 76 ft | 0 kts | 228° |
| 2026-05-07 15:30 | 19.94945 | 110.45843 | 76 ft | 0 kts | 226° |
| 2026-05-07 15:30 | 19.94943 | 110.45843 | 77 ft | 0 kts | 212° |
| 2026-05-07 15:30 | 19.94941 | 110.45843 | 77 ft | 0 kts | 196° |
| 2026-05-07 15:31 | 19.94940 | 110.45843 | 77 ft | 0 kts | 185° |
| 2026-05-07 15:31 | 19.94939 | 110.45843 | 77 ft | 0 kts | 184° |
| 2026-05-07 15:31 | 19.94924 | 110.45842 | 77 ft | 3 kts | 182° |
| 2026-05-07 15:31 | 19.94894 | 110.45842 | 78 ft | 4 kts | 179° |
| 2026-05-07 15:32 | 19.94873 | 110.45842 | 78 ft | 1 kts | 179° |
| 2026-05-07 15:32 | 19.94871 | 110.45842 | 78 ft | 0 kts | 179° |
| 2026-05-07 15:32 | 19.94869 | 110.45842 | 78 ft | 0 kts | 179° |